Latest Weather Observations for Swan Hill

IDV60801

Issued at 5:35 pm EDT Tuesday 21 October 2014 (issued every 30 minutes, with the page automatically refreshed every 10 minutes)

About weather observations | Map of weather stations | Latest weather observations for VIC | Other Formats
Station Details ID: 077094 Name: SWAN HILL AERODROME Lat: -35.38 Lon: 143.54 Height: 71.0 m
Data from the previous 72 hours. | See also: Recent months at Swan Hill
Date/Time
EDT
Temp
°C
App
Temp
°C
Dew
Point
Rel
Hum
%
Delta-T
°C
Wind Press
QNH
hPa
Press
MSL
hPa
Rain
since 9 am
mm
Dir
 
Spd
km/h
Gust
km/h
Spd
kts
Gust
kts
21/05:30pm 30.8 27.8 5.9 21 13.2 ESE 11 19 6 10 1020.3 - 0.0
21/05:00pm 31.4 28.2 5.2 19 13.8 ESE 11 20 6 11 1020.4 - 0.0
21/04:30pm 31.3 27.9 6.0 20 13.5 ESE 13 20 7 11 1020.6 - 0.0
21/04:00pm 31.5 28.2 6.3 20 13.5 E 13 19 7 10 1021.0 - 0.0
21/03:30pm 31.2 28.1 5.4 19 13.6 E 11 24 6 13 1021.3 - 0.0
21/03:00pm 30.9 27.8 7.1 22 12.9 E 13 24 7 13 1021.7 1021.6 0.0
21/02:30pm 29.7 26.5 7.0 24 12.2 E 13 19 7 10 1022.3 - 0.0
21/02:00pm 28.4 25.3 7.3 26 11.3 E 13 24 7 13 1022.7 - 0.0
21/01:30pm 27.9 24.6 7.9 28 10.8 E 15 24 8 13 1023.1 - 0.0
21/01:00pm 27.2 23.9 8.1 30 10.3 E 15 24 8 13 1023.4 - 0.0
21/12:30pm 26.1 22.8 8.2 32 9.7 E 15 24 8 13 1023.7 - 0.0
21/12:00pm 25.0 21.5 8.6 35 8.8 ENE 17 26 9 14 1024.0 1024.0 0.0
21/11:30am 24.5 21.3 8.4 36 8.6 ENE 15 22 8 12 1024.5 - 0.0
21/11:00am 22.8 18.9 8.7 40 7.5 NE 19 26 10 14 1024.6 - 0.0
21/10:30am 21.8 17.7 8.5 42 7.0 NE 20 28 11 15 1024.8 - 0.0
21/10:00am 20.1 16.0 8.6 47 6.0 NE 20 28 11 15 1024.7 - 0.0
21/09:30am 19.1 15.0 8.7 51 5.4 NE 20 32 11 17 1024.7 - 0.0
21/09:00am 17.5 13.5 8.3 54 4.7 ENE 19 26 10 14 1024.9 1024.9 0.0
21/08:30am 15.7 11.7 8.1 60 3.8 ENE 19 28 10 15 1024.9 - 0.0
21/08:00am 14.0 10.6 7.5 65 3.2 ENE 15 22 8 12 1024.6 - 0.0
21/07:30am 11.0 8.9 6.8 75 2.0 ESE 7 11 4 6 1024.2 - 0.0
21/07:00am 9.0 6.4 5.9 81 1.4 ESE 9 13 5 7 1024.1 - 0.0
21/06:30am 9.1 6.0 5.6 79 1.6 SE 11 15 6 8 1023.9 - 0.0
21/06:00am 9.7 6.3 5.8 77 1.8 ESE 13 17 7 9 1023.8 1023.8 0.0
21/05:30am 10.1 7.2 6.5 78 1.7 ESE 11 15 6 8 1023.7 - 0.0
21/05:00am 10.7 7.4 6.2 74 2.1 ESE 13 19 7 10 1023.5 - 0.0
21/04:30am 10.8 7.8 6.1 73 2.2 ESE 11 19 6 10 1023.5 - 0.0
21/04:00am 10.9 7.3 4.9 66 2.7 SE 13 17 7 9 1023.4 - 0.0
21/03:30am 11.5 8.1 5.9 68 2.6 ESE 13 20 7 11 1023.7 - 0.0
21/03:00am 11.6 7.9 4.5 61 3.2 SE 13 19 7 10 1023.8 1023.9 0.0
21/02:30am 12.5 8.9 5.1 60 3.4 SE 13 19 7 10 1023.7 - 0.0
21/02:00am 13.8 9.6 5.8 58 3.8 SE 17 24 9 13 1023.8 - 0.0
21/01:30am 14.1 10.6 5.4 56 4.1 SE 13 19 7 10 1024.2 - 0.0
21/01:00am 14.1 10.4 4.6 52 4.4 SSE 13 20 7 11 1024.4 - 0.0
21/12:30am 15.2 11.1 4.4 48 5.0 SE 15 22 8 12 1024.6 - 0.0
21/12:00am 16.1 11.6 4.0 44 5.6 SE 17 24 9 13 1024.7 1024.7 0.0
 
Date/Time
EDT
Temp
°C
App
Temp
°C
Dew
Point
Rel
Hum
%
Delta-T
°C
Wind Press
QNH
hPa
Press
MSL
hPa
Rain
since 9 am
mm
Dir
 
Spd
km/h
Gust
km/h
Spd
kts
Gust
kts
20/11:30pm 16.4 12.0 2.7 40 6.2 SE 15 20 8 11 1024.9 - 0.0
20/11:00pm 17.4 13.3 2.1 36 6.9 SE 13 20 7 11 1024.7 - 0.0
20/10:30pm 18.2 14.2 2.7 35 7.1 ESE 13 20 7 11 1024.5 - 0.0
20/10:00pm 18.9 14.9 2.9 34 7.4 SE 13 20 7 11 1024.5 - 0.0
20/09:30pm 18.3 15.0 2.6 35 7.2 ESE 9 11 5 6 1024.1 - 0.0
20/09:00pm 19.3 16.3 2.0 31 7.9 ESE 7 7 4 4 1023.8 1023.8 0.0
20/08:30pm 20.9 17.5 2.1 28 8.7 ESE 9 13 5 7 1023.3 - 0.0
20/08:00pm 22.2 18.8 2.1 26 9.4 ESE 9 13 5 7 1023.0 - 0.0
20/07:30pm 23.8 19.9 0.9 22 10.6 ESE 11 15 6 8 1022.7 - 0.0
20/07:00pm 25.3 20.9 0.2 19 11.7 ESE 13 20 7 11 1022.4 - 0.0
20/06:30pm 26.3 21.9 0.1 18 12.2 ESE 13 20 7 11 1022.4 - 0.0
20/06:00pm 27.0 23.1 1.2 18 12.3 ESE 11 19 6 10 1022.4 1022.4 0.0
20/05:30pm 28.1 23.0 -2.1 14 13.7 SE 15 26 8 14 1022.5 - 0.0
20/05:00pm 28.3 23.5 -2.6 13 14.0 SSE 13 24 7 13 1022.4 - 0.0
20/04:30pm 28.9 24.1 -2.9 12 14.4 SSE 13 22 7 12 1022.6 - 0.0
20/04:00pm 28.2 23.6 -1.4 14 13.6 SE 13 22 7 12 1022.8 - 0.0
20/03:30pm 27.1 22.5 -1.0 16 12.9 ESE 13 22 7 12 1023.1 - 0.0
20/03:00pm 27.4 22.8 -1.2 15 13.1 SE 13 19 7 10 1023.5 1023.5 0.0
20/02:30pm 26.3 21.4 -0.8 17 12.4 SSE 15 24 8 13 1023.9 - 0.0
20/02:00pm 27.0 21.8 0.0 17 12.7 SE 17 24 9 13 1024.2 - 0.0
20/01:30pm 25.3 20.4 -0.2 18 11.8 SE 15 24 8 13 1024.6 - 0.0
20/01:00pm 24.1 19.1 1.1 22 10.8 SE 17 24 9 13 1025.0 - 0.0
20/12:30pm 23.3 18.7 1.4 23 10.2 SSE 15 24 8 13 1025.3 - 0.0
20/12:00pm 21.9 17.0 2.2 27 9.2 SSE 17 26 9 14 1025.8 1025.8 0.0
20/11:30am 20.4 15.8 3.5 32 8.1 ESE 17 26 9 14 1026.1 - 0.0
20/11:00am 19.5 14.6 3.9 35 7.4 SE 19 32 10 17 1026.5 - 0.0
20/10:30am 17.6 12.5 4.2 41 6.3 SE 20 32 11 17 1026.5 - 0.0
20/10:00am 17.0 11.6 4.5 43 5.9 SSE 22 33 12 18 1026.5 - 0.0
20/09:30am 15.4 9.3 4.7 49 5.0 SE 26 39 14 21 1026.5 - 0.0
20/09:00am 14.7 9.1 5.6 54 4.3 SE 24 39 13 21 1026.4 1026.5 0.0
20/08:30am 13.6 8.2 6.3 61 3.5 SE 24 37 13 20 1026.1 - 0.0
20/08:00am 12.4 7.6 7.4 71 2.4 SE 22 32 12 17 1025.9 - 0.0
20/07:30am 12.0 7.1 6.7 70 2.5 SE 22 33 12 18 1025.7 - 0.0
20/07:00am 11.4 7.0 7.2 75 2.0 SE 20 28 11 15 1025.4 - 0.0
20/06:30am 11.4 7.4 8.1 80 1.6 SE 19 26 10 14 1024.9 - 0.0
20/06:00am 11.8 7.6 8.3 79 1.7 SE 20 30 11 16 1024.5 1024.5 0.0
20/05:30am 12.3 7.7 8.2 76 2.0 SE 22 37 12 20 1024.3 - 0.0
20/05:00am 12.5 7.9 8.0 74 2.2 SE 22 33 12 18 1023.9 - 0.0
20/04:30am 12.6 8.6 8.4 75 2.1 SE 19 30 10 16 1023.8 - 0.0
20/04:00am 13.0 8.9 8.6 74 2.2 SE 20 30 11 16 1023.5 - 0.0
20/03:30am 13.2 9.2 9.0 75 2.1 SE 20 28 11 15 1023.4 - 0.0
20/03:00am 13.7 9.4 9.2 74 2.3 SSE 22 33 12 18 1023.2 1023.2 0.0
20/02:30am 14.0 10.0 9.1 72 2.5 SSE 20 30 11 16 1023.3 - 0.0
20/02:00am 14.4 10.5 8.6 68 2.9 SSE 19 28 10 15 1023.2 - 0.0
20/01:30am 15.0 11.7 8.2 64 3.4 SSE 15 20 8 11 1022.9 - 0.0
20/01:00am 15.9 12.6 7.9 59 4.0 SSE 15 24 8 13 1023.1 - 0.0
20/12:30am 17.0 12.8 7.4 53 4.8 SSE 19 28 10 15 1023.2 - 0.0
20/12:00am 17.8 13.7 7.7 51 5.1 SSE 19 28 10 15 1023.0 1023.0 0.0
 
Date/Time
EDT
Temp
°C
App
Temp
°C
Dew
Point
Rel
Hum
%
Delta-T
°C
Wind Press
QNH
hPa
Press
MSL
hPa
Rain
since 9 am
mm
Dir
 
Spd
km/h
Gust
km/h
Spd
kts
Gust
kts
19/11:30pm 18.3 14.1 9.6 57 4.6 SSE 22 37 12 20 1023.2 - 0.0
19/11:00pm 20.6 16.7 9.5 49 5.9 SSE 20 32 11 17 1022.9 - 0.0
19/10:30pm 22.9 17.7 2.4 26 9.7 S 19 28 10 15 1022.7 - 0.0
19/10:00pm 23.9 19.3 -4.0 15 11.8 SSW 11 15 6 8 1021.9 - 0.0
19/09:30pm 24.4 18.4 -7.0 12 12.6 SSW 17 24 9 13 1021.6 - 0.0
19/09:00pm 21.7 19.9 0.9 25 9.5 CALM 0 0 0 0 1020.4 1020.4 0.0
19/08:30pm 24.8 20.6 -0.8 18 11.6 N 11 13 6 7 1020.0 - 0.0
19/08:00pm 24.0 19.2 -2.3 17 11.5 NNW 13 13 7 7 1019.8 - 0.0
19/07:30pm 25.2 21.1 -0.3 18 11.7 NW 11 13 6 7 1019.5 - 0.0
19/07:00pm 28.5 24.3 -1.0 14 13.7 WNW 11 13 6 7 1019.3 - 0.0
19/06:30pm 31.8 26.1 -7.9 7 16.8 WNW 15 19 8 10 1019.2 - 0.0
19/06:00pm 32.2 25.4 -9.2 6 17.2 WNW 20 24 11 13 1019.3 1019.3 0.0
19/05:30pm 32.0 24.7 -11.0 5 17.3 NW 22 28 12 15 1019.3 - 0.0
19/05:00pm 32.4 24.6 -12.6 5 17.7 NNW 24 32 13 17 1019.1 - 0.0
19/04:30pm 33.4 26.0 -12.0 5 18.2 WNW 22 35 12 19 1019.3 - 0.0
19/04:00pm 33.4 26.7 -11.0 5 18.1 W 19 37 10 20 1019.4 - 0.0
19/03:30pm 33.0 25.6 -12.3 5 18.0 WNW 22 32 12 17 1019.7 - 0.0
19/03:00pm 33.0 25.4 -10.4 5 17.8 WNW 24 33 13 18 1019.9 1019.9 0.0
19/02:30pm 32.7 25.8 -11.1 5 17.7 N 20 33 11 18 1020.2 - 0.0
19/02:00pm 31.9 25.0 -10.7 6 17.2 NNW 20 35 11 19 1020.6 - 0.0
19/01:30pm 32.0 23.9 -11.1 5 17.3 NW 26 43 14 23 1021.0 - 0.0
19/01:00pm 32.5 24.7 -12.2 5 17.7 WNW 24 39 13 21 1021.3 - 0.0
19/12:30pm 31.5 23.4 -11.0 6 17.1 NW 26 39 14 21 1021.7 - 0.0
19/12:00pm 30.5 22.5 -10.7 6 16.4 NW 26 41 14 22 1022.1 1022.2 0.0
19/11:30am 30.5 21.8 -9.8 7 16.4 NNW 30 39 16 21 1022.4 - 0.0
19/11:00am 28.1 20.2 -9.3 8 15.0 NNW 26 33 14 18 1022.8 - 0.0
19/10:30am 27.7 21.0 -7.9 9 14.5 N 20 24 11 13 1022.6 - 0.0
19/10:00am 25.4 19.1 -6.3 12 13.1 N 19 26 10 14 1022.7 - 0.0
19/09:30am 23.4 17.6 -4.9 15 11.7 N 17 22 9 12 1022.7 - 0.0
19/09:00am 20.3 15.0 -3.4 20 9.8 N 15 19 8 10 1022.8 1022.8 0.0
19/08:30am 18.2 12.7 -5.1 20 9.1 N 15 19 8 10 1022.8 - 0.0
19/08:00am 16.2 11.2 -3.9 25 7.9 N 13 17 7 9 1022.6 - 0.0
19/07:30am 14.8 10.9 -1.7 32 6.7 NNE 9 9 5 5 1022.5 - 0.0
19/07:00am 12.9 9.0 -1.3 37 5.7 NNE 9 11 5 6 1022.3 - 0.0
19/06:30am 12.8 9.0 -1.1 38 5.6 NNE 9 11 5 6 1021.9 - 0.0
19/06:00am 13.4 10.0 -0.5 38 5.7 NNE 7 11 4 6 1021.7 1021.7 0.0
19/05:30am 14.1 10.0 -3.0 30 6.7 NNE 9 13 5 7 1021.5 - 0.0
19/05:00am 12.8 9.3 -1.1 38 5.6 NNE 7 9 4 5 1021.6 - 0.0
19/04:30am 12.8 9.3 -3.0 33 6.1 NNE 6 7 3 4 1021.7 - 0.0
19/04:00am 15.5 10.6 -3.6 26 7.5 NNE 13 17 7 9 1021.6 - 0.0
19/03:30am 15.8 10.4 -4.8 24 7.9 NNE 15 19 8 10 1021.7 - 0.0
19/03:00am 14.9 9.3 -2.7 29 7.0 NE 17 20 9 11 1021.7 1021.7 0.0
19/02:30am 15.4 10.5 -3.8 26 7.5 NNE 13 15 7 8 1022.0 - 0.0
19/02:00am 15.3 10.1 -2.8 28 7.2 NE 15 17 8 9 1022.0 - 0.0
19/01:30am 15.2 10.5 -1.8 31 6.9 NE 13 15 7 8 1022.3 - 0.0
19/01:00am 15.7 10.9 -2.4 29 7.3 NE 13 15 7 8 1022.4 - 0.0
19/12:30am 15.4 11.1 -1.4 31 6.9 NE 11 11 6 6 1022.7 - 0.0
19/12:00am 16.7 12.8 -1.7 28 7.6 NE 9 11 5 6 1022.9 1022.9 0.0
 
Date/Time
EDT
Temp
°C
App
Temp
°C
Dew
Point
Rel
Hum
%
Delta-T
°C
Wind Press
QNH
hPa
Press
MSL
hPa
Rain
since 9 am
mm
Dir
 
Spd
km/h
Gust
km/h
Spd
kts
Gust
kts
18/11:30pm 17.4 12.6 -2.3 26 8.1 NE 13 15 7 8 1022.8 - 0.0
18/11:00pm 17.6 13.4 -1.1 28 7.9 ENE 11 13 6 7 1022.8 - 0.0
18/10:30pm 17.9 13.7 -0.9 28 8.0 NE 11 13 6 7 1022.9 - 0.0
18/10:00pm 18.8 14.2 -1.1 26 8.5 NE 13 15 7 8 1023.2 - 0.0
18/09:30pm 18.5 14.5 0.2 29 8.0 N 11 13 6 7 1023.2 - 0.0
18/09:00pm 18.7 15.0 2.3 33 7.5 N 11 11 6 6 1023.0 1023.0 0.0
18/08:30pm 20.4 16.5 1.2 28 8.7 N 11 13 6 7 1022.5 - 0.0
18/08:00pm 22.6 19.3 0.4 23 10.1 N 7 7 4 4 1022.3 - 0.0
18/07:30pm 24.3 21.1 0.8 21 10.9 N 7 7 4 4 1022.1 - 0.0
18/07:00pm 26.4 21.7 -5.4 12 13.4 N 11 15 6 8 1021.7 - 0.0
18/06:30pm 27.7 22.8 -6.6 10 14.3 NNE 11 17 6 9 1021.5 - 0.0
18/06:00pm 28.0 22.6 -8.8 8 14.8 NNE 13 24 7 13 1021.2 1021.2 0.0

Other Formats:

Comma delimited format used in spreadsheet applications
http://www.bom.gov.au/fwo/IDV60801/IDV60801.94843.axf

JavaScript Object Notation format (JSON) in row-major order
http://www.bom.gov.au/fwo/IDV60801/IDV60801.94843.json